Time;durP1;ratioP1;P1;durP2;ratioP2;P2;SDS_P1;SDS_P2;PMS_P1;PMS_P2;Temp;Humidity;BMP_temperature;BMP_pressure;BME280_temperature;BME280_humidity;BME280_pressure;Samples;Min_cycle;Max_cycle;Signal;HPM_P1;HPM_P2
2023/07/07 00:02:45;;;;;;;0.28;0.28;;;;;;;20.19;48.85;101315.09;5159989;28;20034;-82
2023/07/07 00:05:36;;;;;;;0.30;0.30;;;;;;;20.14;48.97;101330.50;5194649;28;20051;-81
2023/07/07 00:08:27;;;;;;;0.20;0.20;;;;;;;20.05;49.70;101331.88;5210527;28;20038;-81
2023/07/07 00:11:24;;;;;;;0.32;0.32;;;;;;;20.01;49.57;101337.47;5224210;28;20802;-81
2023/07/07 00:14:55;;;;;;;0.32;0.32;;;;;;;19.94;48.71;101335.16;5196032;28;20052;-81
2023/07/07 00:17:47;;;;;;;0.28;0.25;;;;;;;19.88;48.83;101340.84;5228361;28;20056;-80
2023/07/07 00:20:38;;;;;;;0.32;0.32;;;;;;;19.87;49.34;101340.94;5211679;28;20060;-82
2023/07/07 00:23:32;;;;;;;0.40;0.40;;;;;;;19.84;49.05;101335.75;5209234;28;20039;-81
2023/07/07 00:26:25;;;;;;;0.20;0.20;;;;;;;19.80;49.03;101335.06;5220673;28;20169;-81
2023/07/07 00:29:15;;;;;;;0.85;0.85;;;;;;;19.75;49.15;101342.47;5184635;28;20137;-81
2023/07/07 00:32:07;;;;;;;0.30;0.30;;;;;;;19.69;49.41;101343.66;5208460;28;20126;-81
2023/07/07 00:34:58;;;;;;;0.35;0.35;;;;;;;19.63;49.91;101336.00;5205632;28;20404;-81
2023/07/07 00:37:49;;;;;;;0.40;0.40;;;;;;;19.60;49.84;101342.34;5206913;28;21227;-82
2023/07/07 00:40:40;;;;;;;0.43;0.43;;;;;;;19.58;49.43;101343.38;5206662;28;20034;-81
2023/07/07 00:43:30;;;;;;;0.30;0.30;;;;;;;19.47;49.81;101339.50;5208151;28;20046;-81
2023/07/07 00:46:21;;;;;;;0.30;0.30;;;;;;;19.45;49.72;101340.53;5208807;28;20042;-81
2023/07/07 00:49:16;;;;;;;0.20;0.20;;;;;;;19.42;49.71;101336.25;5156438;28;20038;-81
2023/07/07 00:52:07;;;;;;;0.40;0.40;;;;;;;19.35;50.17;101340.19;5228691;28;20035;-81
2023/07/07 00:54:58;;;;;;;0.68;0.68;;;;;;;19.33;49.85;101347.38;5217141;28;20038;-80
2023/07/07 00:57:49;;;;;;;0.73;0.55;;;;;;;19.32;50.03;101341.22;5207753;28;20035;-81
2023/07/07 01:00:44;;;;;;;0.38;0.38;;;;;;;19.23;50.03;101335.50;5210273;28;20072;-83
2023/07/07 01:03:39;;;;;;;1.90;1.33;;;;;;;19.16;50.49;101335.84;5243726;28;20420;-81
2023/07/07 01:06:36;;;;;;;0.30;0.30;;;;;;;19.18;49.93;101341.97;5214405;28;20064;-82
2023/07/07 01:09:26;;;;;;;0.35;0.35;;;;;;;19.10;50.70;101330.88;5157958;28;20041;-81
2023/07/07 01:12:17;;;;;;;0.50;0.50;;;;;;;19.06;50.32;101334.63;5210919;28;20033;-81
2023/07/07 01:15:09;;;;;;;1.75;0.75;;;;;;;19.05;50.00;101338.22;5219828;28;20039;-82
2023/07/07 01:18:19;;;;;;;0.50;0.50;;;;;;;18.98;50.66;101339.47;5204473;28;20029;-81
2023/07/07 01:21:21;;;;;;;0.22;0.22;;;;;;;19.00;50.69;101342.94;5209815;28;20338;-81
2023/07/07 01:24:39;;;;;;;1.10;1.00;;;;;;;18.97;50.94;101330.66;5228754;28;20034;-80
2023/07/07 01:27:35;;;;;;;0.40;0.40;;;;;;;18.90;50.59;101339.00;5221973;28;20041;-81
2023/07/07 01:30:51;;;;;;;0.35;0.35;;;;;;;18.85;50.54;101345.44;5163356;28;20057;-80
2023/07/07 01:33:43;;;;;;;0.50;0.35;;;;;;;18.80;50.84;101344.78;5228964;28;20050;-82
2023/07/07 01:36:34;;;;;;;0.20;0.20;;;;;;;18.79;50.78;101343.09;5213183;28;20042;-81
2023/07/07 01:39:26;;;;;;;0.55;0.55;;;;;;;18.77;50.81;101334.34;5202600;28;20046;-81
2023/07/07 01:42:36;;;;;;;0.65;0.65;;;;;;;18.72;50.77;101341.66;5157604;28;20392;-83
2023/07/07 01:45:34;;;;;;;0.57;0.57;;;;;;;18.62;50.92;101341.28;5210656;28;20041;-81
2023/07/07 01:48:31;;;;;;;0.38;0.38;;;;;;;18.61;50.87;101344.03;5222029;28;20129;-81
2023/07/07 01:51:27;;;;;;;0.38;0.38;;;;;;;18.56;51.09;101336.31;5224401;28;20019;-81
2023/07/07 01:54:20;;;;;;;0.30;0.30;;;;;;;18.56;50.93;101347.78;5185922;28;20040;-81
2023/07/07 01:57:14;;;;;;;0.60;0.60;;;;;;;18.56;51.49;101337.13;5219515;28;20030;-81
2023/07/07 02:00:05;;;;;;;;;;;;;;;18.51;50.98;101339.19;5161519;28;20425;-81
2023/07/07 02:02:58;;;;;;;1.55;1.08;;;;;;;18.49;51.50;101346.38;5229784;28;19918;-81
2023/07/07 02:05:49;;;;;;;0.30;0.30;;;;;;;18.43;51.21;101348.50;5235137;28;20042;-81
2023/07/07 02:08:40;;;;;;;0.50;0.50;;;;;;;18.41;51.43;101337.91;5214516;28;20208;-81
2023/07/07 02:11:31;;;;;;;1.38;0.75;;;;;;;18.35;51.54;101332.94;5164883;28;20030;-82
2023/07/07 02:14:22;;;;;;;0.70;0.65;;;;;;;18.32;51.55;101333.94;5222270;28;20038;-82
2023/07/07 02:17:15;;;;;;;0.93;0.93;;;;;;;18.29;51.80;101343.88;5155430;28;20467;-80
2023/07/07 02:20:08;;;;;;;0.70;0.70;;;;;;;18.23;52.29;101340.56;5212533;28;20476;-81
2023/07/07 02:22:59;;;;;;;0.40;0.35;;;;;;;18.25;51.51;101336.03;5237434;28;20022;-80
2023/07/07 02:25:50;;;;;;;0.22;0.22;;;;;;;18.17;51.77;101340.88;5211831;28;21128;-82
2023/07/07 02:28:41;;;;;;;0.30;0.30;;;;;;;18.12;51.87;101334.06;5223214;28;20494;-81
2023/07/07 02:31:32;;;;;;;1.15;0.40;;;;;;;18.12;51.61;101340.25;5223934;28;20027;-81
2023/07/07 02:34:22;;;;;;;2.92;0.45;;;;;;;18.09;51.76;101338.59;5223673;28;20034;-81
2023/07/07 02:37:18;;;;;;;0.30;0.30;;;;;;;18.05;51.76;101342.34;5198795;28;20022;-82
2023/07/07 02:40:09;;;;;;;0.60;0.60;;;;;;;18.02;51.64;101341.63;5204605;28;20050;-81
2023/07/07 02:43:11;;;;;;;0.90;0.90;;;;;;;17.98;52.48;101340.03;5212167;28;20050;-80
2023/07/07 02:46:02;;;;;;;0.38;0.38;;;;;;;17.93;52.64;101345.56;5154175;28;20037;-81
2023/07/07 02:48:53;;;;;;;0.20;0.20;;;;;;;17.92;52.37;101336.72;5158338;28;20039;-82
2023/07/07 02:51:44;;;;;;;0.30;0.30;;;;;;;17.88;51.92;101345.78;5227605;28;20035;-82
2023/07/07 02:54:35;;;;;;;0.70;0.70;;;;;;;17.77;52.17;101342.78;5209706;28;20034;-82
2023/07/07 02:57:26;;;;;;;1.88;1.65;;;;;;;17.76;52.31;101346.34;5240523;28;20037;-81
2023/07/07 03:00:20;;;;;;;0.85;0.68;;;;;;;17.78;52.38;101344.50;5250050;28;20026;-80
2023/07/07 03:03:12;;;;;;;0.40;0.40;;;;;;;17.73;51.91;101352.69;5241606;28;20053;-82
2023/07/07 03:06:05;;;;;;;0.38;0.38;;;;;;;17.72;52.00;101347.44;5235169;28;20019;-81
2023/07/07 03:08:56;;;;;;;0.50;0.50;;;;;;;17.71;52.07;101351.03;5229335;28;20046;-81
2023/07/07 03:11:47;;;;;;;0.60;0.60;;;;;;;17.66;52.26;101351.25;5212054;28;20039;-82
2023/07/07 03:14:38;;;;;;;0.20;0.20;;;;;;;17.62;52.23;101345.22;5209080;28;20095;-81
2023/07/07 03:17:30;;;;;;;0.50;0.50;;;;;;;17.60;52.23;101355.03;5220753;28;20041;-80
2023/07/07 03:20:23;;;;;;;0.73;0.45;;;;;;;17.57;52.59;101346.38;5225312;28;20058;-81
2023/07/07 03:23:17;;;;;;;0.43;0.43;;;;;;;17.55;52.34;101349.09;5201764;28;20037;-81
2023/07/07 03:26:14;;;;;;;0.28;0.28;;;;;;;17.50;52.66;101351.09;5228839;28;20033;-81
2023/07/07 03:29:05;;;;;;;1.02;0.70;;;;;;;17.48;52.38;101354.75;5203342;28;20088;-81
2023/07/07 03:31:55;;;;;;;0.28;0.28;;;;;;;17.48;52.67;101352.94;5215697;28;20039;-82
2023/07/07 03:34:49;;;;;;;0.70;0.70;;;;;;;17.47;53.14;101353.91;5208389;28;20075;-81
2023/07/07 03:37:40;;;;;;;0.30;0.30;;;;;;;17.42;52.42;101353.22;5209536;28;20031;-81
2023/07/07 03:40:31;;;;;;;0.30;0.30;;;;;;;17.40;53.06;101355.09;5227035;28;20038;-82
2023/07/07 03:43:22;;;;;;;0.30;0.30;;;;;;;17.40;52.79;101355.09;5211167;28;20113;-81
2023/07/07 03:46:22;;;;;;;0.52;0.52;;;;;;;17.34;53.01;101361.56;5216788;28;20336;-82
2023/07/07 03:49:13;;;;;;;0.73;0.73;;;;;;;17.30;52.69;101365.25;5214899;28;20039;-83
2023/07/07 03:52:04;;;;;;;0.22;0.22;;;;;;;17.27;53.20;101366.25;5227231;28;20047;-83
2023/07/07 03:54:55;;;;;;;0.50;0.50;;;;;;;17.29;53.12;101361.75;5221267;28;20069;-84
2023/07/07 03:57:46;;;;;;;0.47;0.47;;;;;;;17.29;53.55;101367.06;5208456;28;20855;-83
2023/07/07 04:00:37;;;;;;;0.50;0.50;;;;;;;17.23;52.90;101361.16;5208839;28;20068;-82
2023/07/07 04:03:28;;;;;;;0.40;0.40;;;;;;;17.24;53.64;101369.03;5224193;28;20448;-83
2023/07/07 04:06:19;;;;;;;0.30;0.30;;;;;;;17.23;53.53;101372.63;5207188;28;20405;-85
2023/07/07 04:09:10;;;;;;;0.73;0.73;;;;;;;17.23;53.62;101369.97;5205899;28;20142;-83
2023/07/07 04:12:01;;;;;;;0.35;0.35;;;;;;;17.22;53.95;101370.94;5213398;28;20022;-82
2023/07/07 04:14:52;;;;;;;6.60;0.57;;;;;;;17.20;53.81;101364.81;5206822;28;20495;-82
2023/07/07 04:17:43;;;;;;;0.50;0.50;;;;;;;17.16;53.99;101368.53;5227567;28;20035;-83
2023/07/07 04:20:33;;;;;;;0.60;0.60;;;;;;;17.18;54.17;101371.97;5214687;28;20138;-82
2023/07/07 04:23:28;;;;;;;1.23;1.05;;;;;;;17.14;54.07;101365.09;5217140;28;20046;-82
2023/07/07 04:26:21;;;;;;;0.50;0.50;;;;;;;17.15;54.76;101369.44;5217254;28;20037;-82
2023/07/07 04:29:12;;;;;;;0.45;0.45;;;;;;;17.18;54.93;101369.31;5214769;28;20038;-83
2023/07/07 04:32:04;;;;;;;0.95;0.95;;;;;;;17.15;54.52;101366.78;5224459;28;20081;-82
2023/07/07 04:34:55;;;;;;;1.45;0.90;;;;;;;17.14;54.89;101370.41;5225821;28;20061;-81
2023/07/07 04:37:46;;;;;;;0.30;0.30;;;;;;;17.13;54.99;101369.53;5229910;28;20038;-83
2023/07/07 04:40:37;;;;;;;0.45;0.45;;;;;;;17.12;54.96;101370.44;5165337;28;20104;-81
2023/07/07 04:43:28;;;;;;;0.30;0.30;;;;;;;17.13;54.87;101366.03;5213817;28;20496;-82
2023/07/07 04:46:25;;;;;;;0.40;0.40;;;;;;;17.12;54.85;101366.94;5155952;28;20034;-82
2023/07/07 04:49:18;;;;;;;0.80;0.73;;;;;;;17.11;55.29;101360.78;5230413;28;20125;-81
2023/07/07 04:52:08;;;;;;;18.30;2.17;;;;;;;17.10;55.40;101367.03;5224791;28;20122;-84
2023/07/07 04:54:59;;;;;;;0.50;0.47;;;;;;;17.11;55.11;101359.94;5203053;28;20037;-82
2023/07/07 04:57:50;;;;;;;1.40;0.82;;;;;;;17.07;55.33;101368.94;5224074;28;20035;-82
2023/07/07 05:00:41;;;;;;;0.50;0.50;;;;;;;17.08;55.03;101360.94;5213658;28;20039;-82
2023/07/07 05:03:33;;;;;;;0.52;0.52;;;;;;;17.11;55.80;101365.22;5227908;28;20042;-81
2023/07/07 05:06:27;;;;;;;0.47;0.47;;;;;;;17.09;55.51;101367.97;5219797;28;20060;-84
2023/07/07 05:09:17;;;;;;;0.68;0.68;;;;;;;17.13;55.54;101373.97;5230645;28;20042;-84
2023/07/07 05:12:10;;;;;;;0.35;0.35;;;;;;;17.11;55.57;101367.88;5221477;28;20174;-82
2023/07/07 05:15:42;;;;;;;0.30;0.30;;;;;;;17.09;55.41;101373.25;5212680;28;20039;-80
2023/07/07 05:19:00;;;;;;;0.22;0.22;;;;;;;17.05;55.91;101363.69;5173526;28;20030;-80
2023/07/07 05:22:26;;;;;;;0.20;0.20;;;;;;;16.94;57.04;101373.94;5202432;28;20055;-80
2023/07/07 05:25:59;;;;;;;0.70;0.68;;;;;;;16.98;57.11;101360.44;5193058;28;20035;-80
2023/07/07 05:29:00;;;;;;;0.20;0.20;;;;;;;17.13;55.45;101368.69;5222546;28;20043;-83
2023/07/07 05:31:50;;;;;;;0.50;0.50;;;;;;;17.21;55.27;101379.81;5158686;28;20097;-82
2023/07/07 05:34:41;;;;;;;0.30;0.30;;;;;;;17.21;55.72;101377.16;5209033;28;20397;-82
2023/07/07 05:37:32;;;;;;;0.20;0.20;;;;;;;17.23;55.58;101382.38;5210433;28;20045;-81
2023/07/07 05:40:23;;;;;;;0.30;0.30;;;;;;;17.29;55.59;101379.44;5209754;28;20086;-82
2023/07/07 05:43:20;;;;;;;0.30;0.30;;;;;;;17.31;56.49;101383.75;5204036;28;20551;-82
2023/07/07 05:46:13;;;;;;;0.50;0.50;;;;;;;17.31;55.63;101383.75;5229657;28;20035;-81
2023/07/07 05:49:04;;;;;;;1.03;0.83;;;;;;;17.34;57.63;101376.59;5232480;28;20096;-81
2023/07/07 05:51:55;;;;;;;0.30;0.30;;;;;;;17.37;56.15;101384.41;5219023;28;20026;-81
2023/07/07 05:54:46;;;;;;;0.43;0.43;;;;;;;17.42;55.83;101371.78;5217514;28;20034;-82
2023/07/07 05:57:36;;;;;;;0.73;0.60;;;;;;;17.47;56.30;101372.47;5212849;28;20034;-82
2023/07/07 06:00:29;;;;;;;1.05;0.75;;;;;;;17.48;56.31;101379.47;5213488;28;20041;-82
2023/07/07 06:03:20;;;;;;;1.02;0.38;;;;;;;17.49;57.07;101375.88;5227449;28;20030;-82
2023/07/07 06:06:12;;;;;;;0.40;0.40;;;;;;;17.47;57.55;101372.47;5208880;28;20442;-81
2023/07/07 06:09:06;;;;;;;0.57;0.57;;;;;;;17.55;59.39;101380.06;5228811;28;20077;-82
2023/07/07 06:11:57;;;;;;;0.43;0.43;;;;;;;17.63;56.60;101385.88;5213953;28;20088;-82
2023/07/07 06:14:48;;;;;;;0.73;0.73;;;;;;;17.70;56.23;101383.81;5216424;28;20053;-82
2023/07/07 06:17:39;;;;;;;0.30;0.30;;;;;;;17.76;56.08;101391.47;5218600;28;20021;-79
2023/07/07 06:20:29;;;;;;;0.60;0.60;;;;;;;17.80;55.75;101379.78;5238176;28;20034;-79
2023/07/07 06:23:21;;;;;;;3.65;0.68;;;;;;;17.86;56.04;101383.94;5218872;28;20024;-79
2023/07/07 06:26:11;;;;;;;0.38;0.38;;;;;;;17.90;56.29;101377.56;5206852;28;20026;-80
2023/07/07 06:29:02;;;;;;;0.63;0.63;;;;;;;17.89;56.95;101384.63;5213147;28;20041;-79
2023/07/07 06:31:53;;;;;;;0.35;0.35;;;;;;;17.94;57.26;101393.28;5201808;28;20536;-80
2023/07/07 06:34:44;;;;;;;0.30;0.30;;;;;;;18.00;57.26;101386.84;5146333;28;20058;-78
2023/07/07 06:37:35;;;;;;;0.30;0.30;;;;;;;18.03;57.08;101401.75;5205827;28;20034;-79
2023/07/07 06:40:26;;;;;;;0.47;0.47;;;;;;;18.05;57.70;101399.91;5204525;28;20125;-80
2023/07/07 06:43:18;;;;;;;2.50;1.30;;;;;;;18.03;58.29;101393.78;5209160;28;20022;-81
2023/07/07 06:46:13;;;;;;;0.55;0.55;;;;;;;18.09;57.46;101393.50;5216739;28;20117;-79
2023/07/07 06:49:04;;;;;;;0.30;0.30;;;;;;;18.11;58.92;101393.41;5220870;28;20039;-80
2023/07/07 06:51:55;;;;;;;0.30;0.30;;;;;;;18.11;58.51;101399.59;5207414;28;20520;-79
2023/07/07 06:54:46;;;;;;;0.22;0.22;;;;;;;18.16;57.84;101402.88;5217232;28;20569;-79
2023/07/07 06:57:37;;;;;;;0.20;0.20;;;;;;;18.23;58.29;101409.63;5224400;28;20044;-80
2023/07/07 07:00:30;;;;;;;0.63;0.63;;;;;;;18.18;57.75;101401.03;5251037;28;20117;-82
2023/07/07 07:03:24;;;;;;;0.28;0.28;;;;;;;18.31;58.13;101406.59;5223333;28;20060;-81
2023/07/07 07:06:15;;;;;;;7.57;0.50;;;;;;;18.28;59.19;101404.09;5226712;28;20031;-82
2023/07/07 07:09:09;;;;;;;0.55;0.45;;;;;;;18.35;59.07;101407.31;5193648;28;20037;-82
2023/07/07 07:12:00;;;;;;;0.43;0.43;;;;;;;18.37;58.35;101406.28;5236083;28;20031;-82
2023/07/07 07:14:50;;;;;;;0.47;0.47;;;;;;;18.52;58.06;101409.13;5160170;28;20259;-82
2023/07/07 07:17:41;;;;;;;10.68;0.85;;;;;;;18.53;58.62;101405.53;5159693;28;20042;-83
2023/07/07 07:20:32;;;;;;;1.65;0.90;;;;;;;18.61;57.26;101413.13;5214537;28;20181;-82
2023/07/07 07:23:23;;;;;;;0.88;0.88;;;;;;;18.61;57.73;101413.13;5211677;28;20034;-81
2023/07/07 07:26:14;;;;;;;0.30;0.30;;;;;;;18.66;58.01;101416.41;5218373;28;20034;-80
2023/07/07 07:29:05;;;;;;;0.85;0.85;;;;;;;18.65;58.77;101414.69;5241945;28;20106;-82
2023/07/07 07:31:56;;;;;;;7.72;0.90;;;;;;;18.79;59.26;101409.56;5234381;28;20072;-81
2023/07/07 07:34:46;;;;;;;0.25;0.25;;;;;;;18.87;58.25;101406.50;5228031;28;20027;-79
2023/07/07 07:37:37;;;;;;;0.20;0.20;;;;;;;18.85;57.89;101401.25;5225989;28;20080;-81
2023/07/07 07:40:28;;;;;;;0.30;0.30;;;;;;;18.95;58.36;101404.31;5234873;28;20047;-82
2023/07/07 07:43:20;;;;;;;5.38;0.93;;;;;;;18.98;57.59;101409.50;5234993;28;20089;-82
2023/07/07 07:46:11;;;;;;;0.40;0.40;;;;;;;19.12;58.37;101408.78;5222645;28;20087;-82
2023/07/07 07:49:02;;;;;;;0.30;0.30;;;;;;;19.10;57.82;101410.66;5207957;28;20031;-82
2023/07/07 07:51:54;;;;;;;0.20;0.20;;;;;;;19.24;56.75;101404.63;5219405;28;20474;-81
2023/07/07 07:54:44;;;;;;;0.28;0.28;;;;;;;19.29;56.14;101399.06;5227698;28;20519;-82
2023/07/07 07:57:36;;;;;;;0.20;0.20;;;;;;;19.40;56.09;101404.66;5223893;28;20107;-83
2023/07/07 08:00:27;;;;;;;0.20;0.20;;;;;;;19.31;56.07;101406.00;5228827;28;20034;-82
2023/07/07 08:03:18;;;;;;;0.52;0.52;;;;;;;19.43;55.67;101401.84;5207542;28;20097;-81
2023/07/07 08:06:09;;;;;;;1.10;0.43;;;;;;;19.52;55.70;101404.94;5212660;28;20491;-82
2023/07/07 08:09:00;;;;;;;1.83;1.00;;;;;;;19.48;55.64;101410.41;5209798;28;20045;-83
2023/07/07 08:11:54;;;;;;;0.20;0.20;;;;;;;19.53;56.10;101410.16;5209263;28;20034;-81
2023/07/07 08:14:45;;;;;;;0.30;0.30;;;;;;;19.71;55.25;101418.09;5229932;28;20043;-81
2023/07/07 08:17:36;;;;;;;0.35;0.35;;;;;;;19.77;54.54;101409.78;5221674;28;20027;-81
2023/07/07 08:20:30;;;;;;;0.22;0.22;;;;;;;19.73;54.58;101419.72;5222175;28;20314;-80
2023/07/07 08:23:21;;;;;;;0.43;0.43;;;;;;;19.84;53.73;101413.81;5204163;28;20034;-81
2023/07/07 08:26:12;;;;;;;0.55;0.55;;;;;;;19.89;52.62;101418.91;5209827;28;20552;-81
2023/07/07 08:29:03;;;;;;;0.30;0.30;;;;;;;19.94;54.01;101423.06;5210663;28;20099;-81
2023/07/07 08:31:54;;;;;;;0.60;0.60;;;;;;;19.93;53.25;101425.81;5241044;28;20024;-82
2023/07/07 08:34:45;;;;;;;0.40;0.40;;;;;;;20.07;53.61;101419.72;5210318;28;20544;-82
2023/07/07 08:37:35;;;;;;;0.30;0.30;;;;;;;20.08;53.34;101424.94;5212851;28;20313;-82
2023/07/07 08:40:35;;;;;;;0.30;0.30;;;;;;;20.19;52.45;101431.50;5242397;28;20026;-81
2023/07/07 08:43:29;;;;;;;0.40;0.40;;;;;;;20.34;52.87;101425.28;5229991;28;20188;-82
2023/07/07 08:46:47;;;;;;;0.20;0.20;;;;;;;20.41;51.69;101421.31;5208748;28;20038;-82
2023/07/07 08:49:52;;;;;;;9.32;0.57;;;;;;;20.38;51.83;101416.16;5195171;28;20065;-82
2023/07/07 08:52:42;;;;;;;0.40;0.40;;;;;;;20.55;52.10;101422.31;5221182;28;20034;-82
2023/07/07 08:55:33;;;;;;;0.25;0.25;;;;;;;20.55;51.31;101422.31;5233046;28;20048;-82
2023/07/07 08:58:36;;;;;;;0.30;0.30;;;;;;;20.66;50.99;101419.88;5188401;28;20042;-82
2023/07/07 09:01:48;;;;;;;0.43;0.43;;;;;;;20.72;49.97;101422.19;5158025;28;20037;-82
2023/07/07 09:05:07;;;;;;;3.70;1.30;;;;;;;20.83;50.63;101410.91;5211248;28;20133;-82
2023/07/07 09:08:04;;;;;;;0.30;0.30;;;;;;;20.88;50.48;101407.97;5232901;28;20034;-82
2023/07/07 09:11:16;;;;;;;0.40;0.40;;;;;;;20.99;49.69;101410.03;5206495;28;20041;-81
2023/07/07 09:14:08;;;;;;;0.20;0.20;;;;;;;21.09;49.75;101405.81;5221388;28;20038;-82
2023/07/07 09:17:06;;;;;;;0.63;0.63;;;;;;;21.14;49.19;101405.53;5238151;28;20030;-83
2023/07/07 09:19:59;;;;;;;0.40;0.40;;;;;;;21.22;49.31;101406.81;5214980;28;20026;-82
2023/07/07 09:22:59;;;;;;;;;;;;;;;21.32;49.60;101407.09;5211370;28;20027;-81
2023/07/07 09:26:08;;;;;;;0.77;0.65;;;;;;;21.50;47.49;101398.88;5211533;28;19973;-81
2023/07/07 09:29:03;;;;;;;0.30;0.30;;;;;;;21.41;47.94;101399.47;5224837;28;20034;-81
2023/07/07 09:31:54;;;;;;;8.23;1.88;;;;;;;21.73;46.51;101396.59;5225496;28;20080;-81
2023/07/07 09:34:55;;;;;;;0.40;0.40;;;;;;;21.64;46.95;101396.22;5149814;28;20066;-82
2023/07/07 09:37:54;;;;;;;0.30;0.30;;;;;;;21.69;46.85;101396.78;5216625;28;20026;-82
2023/07/07 09:41:00;;;;;;;0.20;0.20;;;;;;;21.75;46.50;101389.38;5156247;28;20039;-82
2023/07/07 09:44:06;;;;;;;1.00;0.73;;;;;;;21.81;47.11;101392.50;5237107;28;20049;-82
2023/07/07 09:47:11;;;;;;;0.20;0.20;;;;;;;21.84;46.29;101386.09;5222917;28;20089;-82
2023/07/07 09:50:11;;;;;;;0.30;0.30;;;;;;;22.04;47.06;101386.59;5207147;28;20034;-82
2023/07/07 09:53:15;;;;;;;0.20;0.20;;;;;;;22.17;45.77;101384.88;5229416;28;20031;-83
2023/07/07 09:56:11;;;;;;;0.30;0.30;;;;;;;22.37;45.11;101382.66;5157883;28;20097;-82
2023/07/07 09:59:10;;;;;;;1.98;0.95;;;;;;;22.28;45.08;101379.66;5217887;28;20114;-82
2023/07/07 10:02:08;;;;;;;0.30;0.30;;;;;;;22.52;42.99;101379.00;5202893;28;20059;-83
2023/07/07 10:05:02;;;;;;;0.60;0.60;;;;;;;22.45;42.14;101380.38;5214917;28;20645;-82
2023/07/07 10:07:53;;;;;;;2.35;0.55;;;;;;;22.49;43.60;101381.91;5212227;28;20080;-82
2023/07/07 10:10:52;;;;;;;0.20;0.20;;;;;;;22.64;42.57;101380.84;5235410;28;20053;-82
2023/07/07 10:13:43;;;;;;;0.30;0.30;;;;;;;22.63;41.72;101373.78;5212137;28;20043;-82
2023/07/07 10:16:44;;;;;;;0.40;0.40;;;;;;;22.71;40.09;101375.09;5211169;28;20069;-82
2023/07/07 10:19:41;;;;;;;0.43;0.43;;;;;;;22.82;39.65;101382.38;5211545;28;20045;-81
2023/07/07 10:22:35;;;;;;;0.98;0.98;;;;;;;22.78;39.97;101373.69;5222627;28;20117;-82
2023/07/07 10:25:27;;;;;;;;;;;;;;;22.87;39.76;101377.56;5209979;28;20031;-82
2023/07/07 10:28:19;;;;;;;0.60;0.60;;;;;;;22.93;39.31;101375.31;5212188;28;20389;-81
2023/07/07 10:31:11;;;;;;;2.57;0.60;;;;;;;22.90;39.49;101370.19;5232002;28;20026;-82
2023/07/07 10:43:44;;;;;;;;;;;;;;;;;;;;;
2023/07/07 10:47:04;;;;;;;0.45;0.35;;;;;;;23.49;37.88;101358.09;5163817;28;20102;-83
2023/07/07 11:02:35;;;;;;;0.52;0.52;;;;;;;23.91;36.29;101359.56;5042477;29;20037;-81
2023/07/07 11:06:27;;;;;;;0.50;0.50;;;;;;;24.08;35.88;101351.19;5019925;29;20114;-81
2023/07/07 11:09:46;;;;;;;0.20;0.20;;;;;;;24.12;35.15;101349.13;5027959;29;20739;-80
2023/07/07 11:13:06;;;;;;;0.32;0.32;;;;;;;24.15;37.58;101343.50;5106903;28;20493;-81
2023/07/07 11:16:17;;;;;;;0.45;0.45;;;;;;;24.20;36.99;101338.69;5117164;28;20093;-81
2023/07/07 11:19:11;;;;;;;0.20;0.20;;;;;;;24.46;35.89;101339.38;5107470;28;20063;-81
2023/07/07 11:22:42;;;;;;;0.32;0.32;;;;;;;24.33;36.01;101341.28;5131425;28;20070;-81
2023/07/07 11:30:44;;;;;;;0.30;0.30;;;;;;;24.79;35.62;101328.88;5099396;28;20066;-80
2023/07/07 11:34:48;;;;;;;;;;;;;;;;;;;;;
2023/07/07 11:38:16;;;;;;;0.20;0.20;;;;;;;24.87;36.29;101321.09;5158155;28;20039;-79
2023/07/07 11:41:17;;;;;;;0.20;0.20;;;;;;;24.95;35.36;101315.09;5214184;28;20031;-82
2023/07/07 11:44:31;;;;;;;1.10;0.65;;;;;;;25.20;32.41;101307.78;5211293;28;20077;-80
2023/07/07 11:47:56;;;;;;;0.20;0.20;;;;;;;25.30;33.96;101316.81;5217817;28;20477;-80
2023/07/07 11:51:03;;;;;;;0.38;0.38;;;;;;;25.45;34.71;101314.75;5205714;28;20050;-82
2023/07/07 11:54:23;;;;;;;0.45;0.45;;;;;;;25.85;32.33;101318.66;5221052;28;20034;-81
2023/07/07 11:57:39;;;;;;;0.65;0.65;;;;;;;25.73;34.76;101312.47;5148562;28;20026;-81
2023/07/07 12:00:33;;;;;;;0.93;0.73;;;;;;;25.81;34.81;101315.38;5222813;28;20034;-80
2023/07/07 12:03:30;;;;;;;1.55;0.90;;;;;;;25.82;34.29;101313.56;5219442;28;20121;-81
2023/07/07 12:06:34;;;;;;;0.35;0.35;;;;;;;26.16;30.20;101314.31;5209113;28;20038;-80
2023/07/07 12:09:39;;;;;;;0.20;0.20;;;;;;;26.16;29.74;101303.56;5222220;28;20035;-80
2023/07/07 12:12:49;;;;;;;0.40;0.40;;;;;;;26.31;30.74;101304.09;5155388;28;20033;-80
2023/07/07 12:15:50;;;;;;;0.25;0.25;;;;;;;26.38;32.86;101305.28;5212471;28;20115;-81
2023/07/07 12:18:46;;;;;;;0.20;0.20;;;;;;;26.26;32.95;101298.25;5222123;28;20050;-82
2023/07/07 12:21:38;;;;;;;0.20;0.20;;;;;;;26.36;33.58;101293.78;5218021;28;20045;-81
2023/07/07 12:24:50;;;;;;;0.20;0.20;;;;;;;26.62;33.82;101304.16;5216653;28;20181;-81
2023/07/07 12:27:45;;;;;;;4.78;1.48;;;;;;;26.82;31.88;101290.81;5222227;28;20027;-80
2023/07/07 12:30:46;;;;;;;0.40;0.40;;;;;;;26.96;32.77;101290.47;5148808;28;20027;-82
2023/07/07 12:33:41;;;;;;;0.20;0.20;;;;;;;27.37;30.69;101292.31;5221710;28;20236;-80
2023/07/07 12:36:32;;;;;;;0.55;0.55;;;;;;;27.20;32.30;101281.22;5208750;28;20035;-81
2023/07/07 12:39:23;;;;;;;0.40;0.40;;;;;;;27.17;30.05;101281.47;5213946;28;20031;-80
2023/07/07 12:42:15;;;;;;;0.20;0.20;;;;;;;27.28;29.34;101272.44;5228593;28;20754;-80
2023/07/07 12:45:09;;;;;;;3.10;0.90;;;;;;;27.51;29.95;101274.94;5220373;28;20023;-80
2023/07/07 12:48:03;;;;;;;0.50;0.50;;;;;;;27.67;31.39;101269.84;5223455;28;20022;-79
2023/07/07 12:51:00;;;;;;;0.30;0.30;;;;;;;27.75;28.83;101274.53;5154654;28;20042;-81
2023/07/07 12:53:53;;;;;;;0.30;0.30;;;;;;;27.89;31.21;101271.41;5213384;28;20500;-82
2023/07/07 12:57:16;;;;;;;;;;;;;;;27.98;31.15;101266.16;5160755;28;20125;-81
2023/07/07 13:00:28;;;;;;;1.03;0.93;;;;;;;28.26;30.69;101262.63;5173624;28;19914;-80
2023/07/07 13:03:20;;;;;;;0.20;0.20;;;;;;;28.22;30.44;101265.75;5194823;28;20033;-80
2023/07/07 13:06:30;;;;;;;0.30;0.30;;;;;;;28.34;31.02;101255.63;5224163;28;20031;-80
2023/07/07 13:09:26;;;;;;;0.30;0.20;;;;;;;28.57;27.77;101259.69;5226232;28;20049;-82
2023/07/07 13:12:44;;;;;;;0.40;0.40;;;;;;;28.51;27.80;101254.06;5200360;28;20030;-80
2023/07/07 13:15:35;;;;;;;0.25;0.25;;;;;;;28.57;26.63;101248.91;5223293;28;20408;-81
2023/07/07 13:18:26;;;;;;;0.30;0.30;;;;;;;28.90;27.10;101243.13;5224000;28;20045;-81
2023/07/07 13:21:19;;;;;;;0.95;0.88;;;;;;;28.85;28.66;101251.69;5203657;28;20034;-81
2023/07/07 13:24:14;;;;;;;0.43;0.43;;;;;;;28.89;29.02;101246.81;5222262;28;20380;-80
2023/07/07 13:27:12;;;;;;;0.20;0.20;;;;;;;29.07;26.44;101249.56;5221512;28;20087;-81
2023/07/07 13:30:32;;;;;;;0.30;0.30;;;;;;;29.12;27.01;101243.72;5206308;28;20042;-80
2023/07/07 13:33:26;;;;;;;0.85;0.70;;;;;;;29.36;26.74;101232.38;5221316;28;20068;-81
2023/07/07 13:36:17;;;;;;;0.50;0.50;;;;;;;29.31;27.19;101240.03;5227339;28;20056;-80
2023/07/07 13:39:14;;;;;;;0.10;0.10;;;;;;;29.47;26.93;101229.44;5223095;28;20037;-81
2023/07/07 13:42:05;;;;;;;0.68;0.68;;;;;;;29.45;28.10;101222.47;5215038;28;20023;-81
2023/07/07 13:44:59;;;;;;;0.82;0.70;;;;;;;29.58;28.21;101222.09;5212108;28;20117;-80
2023/07/07 13:47:52;;;;;;;0.20;0.20;;;;;;;29.88;26.83;101220.84;5213702;28;20157;-81
2023/07/07 13:50:44;;;;;;;0.25;0.25;;;;;;;29.72;26.72;101216.16;5226224;28;20491;-80
2023/07/07 13:53:35;;;;;;;0.40;0.40;;;;;;;29.76;26.45;101212.13;5164651;28;20089;-81
2023/07/07 13:56:27;;;;;;;0.20;0.20;;;;;;;29.88;28.15;101206.47;5207260;28;20054;-81
2023/07/07 13:59:25;;;;;;;0.63;0.43;;;;;;;29.95;25.62;101203.00;5210739;28;20056;-81
2023/07/07 14:02:17;;;;;;;0.35;0.35;;;;;;;30.27;26.58;101216.94;5151965;28;20930;-82
2023/07/07 14:05:11;;;;;;;;;;;;;;;30.27;27.66;101211.53;5210394;28;20035;-80
2023/07/07 14:08:17;;;;;;;0.13;0.13;;;;;;;30.45;26.41;101198.75;5151652;28;19918;-80
2023/07/07 14:11:19;;;;;;;0.85;0.50;;;;;;;30.35;25.79;101199.88;5206565;28;20061;-81
2023/07/07 14:14:12;;;;;;;0.20;0.20;;;;;;;30.15;24.31;101195.53;5151312;28;20100;-82